This is the latest recevied weather packets stored in our database for station/object JR4VEV-13. If no packets are shown the sender has not sent any weather packets the latest 1 day(s).
| Time | Temp. | Humidity | Pressure | Rain* | Wind** | Luminosity | Snow |
|---|---|---|---|---|---|---|---|
| 1778035359 | 21.11° C | 52% | 1019.7 hPa | 0 mm | 0.89 m/s, 117° | - | - |
| 1778034758 | 21.11° C | 53% | 1019.8 hPa | 0 mm | 0 m/s | - | - |
| 1778034158 | 20.56° C | 53% | 1019.8 hPa | 0 mm | 1.34 m/s, 104° | - | - |
| 1778033557 | 20.56° C | 52% | 1019.9 hPa | 0 mm | 0.89 m/s, 127° | - | - |
| 1778032959 | 20.56° C | 52% | 1020.2 hPa | 0 mm | 0 m/s | - | - |
| 1778032359 | 20.56° C | 55% | 1020.1 hPa | 0 mm | 0 m/s | - | - |
| 1778031758 | 20° C | 58% | 1020.3 hPa | 0 mm | 0 m/s | - | - |
| 1778031158 | 20° C | 59% | 1020.5 hPa | 0 mm | 1.34 m/s, 123° | - | - |
| 1778030558 | 20° C | 61% | 1020.5 hPa | 0 mm | 0 m/s | - | - |
| 1778029958 | 19.44° C | 62% | 1020.7 hPa | 0 mm | 0.45 m/s, 124° | - | - |
| 1778029357 | 18.89° C | 64% | 1020.6 hPa | 0 mm | 0 m/s | - | - |
| 1778028757 | 18.33° C | 65% | 1020.7 hPa | 0 mm | 0 m/s | - | - |
| 1778028158 | 17.78° C | 64% | 1020.8 hPa | 0 mm | 0.45 m/s, 303° | - | - |
| 1778027559 | 17.22° C | 65% | 1021 hPa | 0 mm | 0.45 m/s, 310° | - | - |
| 1778026958 | 16.67° C | 66% | 1021.1 hPa | 0 mm | 0.89 m/s, 252° | - | - |
| 1778026358 | 16.11° C | 66% | 1021.1 hPa | 0 mm | 0.89 m/s, 258° | - | - |
| 1778025757 | 15.56° C | 67% | 1021.2 hPa | 0 mm | 0.45 m/s, 280° | - | - |
| 1778025158 | 15° C | 68% | 1021.1 hPa | 0 mm | 1.34 m/s, 267° | - | - |
| 1778024557 | 14.44° C | 68% | 1021.3 hPa | 0 mm | 0.45 m/s, 287° | - | - |
| 1778023957 | 13.89° C | 69% | 1021.4 hPa | 0 mm | 1.34 m/s, 311° | - | - |
| 1778023357 | 13.33° C | 72% | 1021.4 hPa | 0 mm | 0.45 m/s, 283° | - | - |
| 1778022757 | 12.78° C | 73% | 1021.5 hPa | 0 mm | 2.24 m/s, 300° | - | - |
| 1778022158 | 12.22° C | 73% | 1021.4 hPa | 0 mm | 0.89 m/s, 299° | - | - |
| 1778021557 | 11.67° C | 75% | 1021.3 hPa | 0 mm | 0 m/s | - | - |
| 1778020959 | 11.11° C | 77% | 1021.7 hPa | 0 mm | 0.45 m/s, 280° | - | - |
* Rain latest hour (hover to see other rain measurements)
** Current wind speed in m/s (hover to see current wind gust speed)